Viking Queen — WDB9919 — position and weather

sailwx.info

Track history (hours):
 
Tides and Currents Weather Stations Pressure Air Temp Water Temp Dewpoint Dewpoint Depression Visibility Wind Speed Wind Dir Waves Ship Positions

Viking Queen

Owner: American River Transportation Company, St Louis, MO. More information available from US FCC via Universal Licensing System and Coast Guard Vessel Documentation Center.

Last reported at 2015-Jan-29 14:32 UTC. Time now 2015-Jan-30 06:23 UTC.
Position N 30°02' W 090°50'.

Length 55 m; draft 3.2 m.

Type: Towing. MMSI: 366985050.

Date/timePositionNaut miles runAvg speedWind from/ knotsBaromVisibWave heightAir tempDewpointWater temp
2015-Jan-29 14:32N 30°02' W 090°50'3 3.4
2015-Jan-29 13:33N 30°01' W 090°47'6 5.5
2015-Jan-29 12:31N 30°03' W 090°40'5 4.8
2015-Jan-29 11:34N 30°03' W 090°35'5 4.8
2015-Jan-29 10:33N 30°03' W 090°30'4 4.0
2015-Jan-29 09:33N 29°60' W 090°27'5 4.9
2015-Jan-29 08:33N 29°57' W 090°23'5 5.0
2015-Jan-29 07:33N 29°58' W 090°17'0 0.1
2015-Jan-29 06:33N 29°58' W 090°17'0 0.0
2015-Jan-29 05:34N 29°58' W 090°17'0 0.0
2015-Jan-29 04:28N 29°58' W 090°17'2 1.7
2015-Jan-29 03:32N 29°57' W 090°18'3 2.7
2015-Jan-29 02:32N 29°56' W 090°21'9 7.2
2015-Jan-29 01:20N 30°02' W 090°28'  
Track history (hours):
 
Tides and Currents Weather Stations Pressure Air Temp Water Temp Dewpoint Dewpoint Depression Visibility Wind Speed Wind Dir Waves Ship Positions

Viking Queen

Owner: American River Transportation Company, St Louis, MO. More information available from US FCC via Universal Licensing System and Coast Guard Vessel Documentation Center.

Last reported at 2015-Jan-29 14:32 UTC. Time now 2015-Jan-30 06:23 UTC.
Position N 30°02' W 090°50'.

Length 55 m; draft 3.2 m.

Type: Towing. MMSI: 366985050.

Date/timePositionNaut miles runAvg speedWind from/ knotsBaromVisibWave heightAir tempDewpointWater temp
2015-Jan-29 14:32N 30°02' W 090°50'3 3.4
2015-Jan-29 13:33N 30°01' W 090°47'6 5.5
2015-Jan-29 12:31N 30°03' W 090°40'5 4.8
2015-Jan-29 11:34N 30°03' W 090°35'5 4.8
2015-Jan-29 10:33N 30°03' W 090°30'4 4.0
2015-Jan-29 09:33N 29°60' W 090°27'5 4.9
2015-Jan-29 08:33N 29°57' W 090°23'5 5.0
2015-Jan-29 07:33N 29°58' W 090°17'0 0.1
2015-Jan-29 06:33N 29°58' W 090°17'0 0.0
2015-Jan-29 05:34N 29°58' W 090°17'0 0.0
2015-Jan-29 04:28N 29°58' W 090°17'2 1.7
2015-Jan-29 03:32N 29°57' W 090°18'3 2.7
2015-Jan-29 02:32N 29°56' W 090°21'9 7.2
2015-Jan-29 01:20N 30°02' W 090°28'  

Dump ship's entire track history